createdAt,value
2022-09-06T00:00:14.179Z,17.00
2022-09-06T00:02:42.097Z,17.00
2022-09-06T00:05:10.460Z,17.00
2022-09-06T00:07:37.658Z,17.00
2022-09-06T00:10:05.191Z,17.00
2022-09-06T00:12:32.743Z,17.00
2022-09-06T00:14:59.728Z,17.00
2022-09-06T00:17:26.643Z,17.00
2022-09-06T00:19:53.868Z,16.90
2022-09-06T00:22:20.781Z,16.90
2022-09-06T00:24:47.719Z,16.90
2022-09-06T00:27:14.598Z,16.90
2022-09-06T00:29:41.519Z,16.90
2022-09-06T00:32:09.181Z,16.90
2022-09-06T00:34:36.128Z,16.80
2022-09-06T00:37:03.018Z,16.80
2022-09-06T00:39:29.987Z,16.80
2022-09-06T00:41:56.997Z,16.80
2022-09-06T00:44:24.135Z,16.80
2022-09-06T00:46:53.980Z,16.80
2022-09-06T00:49:29.099Z,16.80
2022-09-06T00:52:06.403Z,16.80
2022-09-06T00:54:33.455Z,16.80
2022-09-06T00:57:01.330Z,16.70
2022-09-06T00:59:31.232Z,16.70
2022-09-06T01:01:59.130Z,16.70
2022-09-06T01:04:26.763Z,16.70
2022-09-06T01:07:24.964Z,16.70
2022-09-06T01:10:21.882Z,16.70
2022-09-06T01:13:14.518Z,16.60
2022-09-06T01:16:04.776Z,16.50
2022-09-06T01:18:59.586Z,16.50
2022-09-06T01:21:32.765Z,16.40
2022-09-06T01:24:37.318Z,16.30
2022-09-06T01:27:48.015Z,16.30
2022-09-06T01:30:18.541Z,16.20
2022-09-06T01:33:16.176Z,16.10
2022-09-06T01:36:02.937Z,16.00
2022-09-06T01:38:29.973Z,15.90
2022-09-06T01:40:56.833Z,15.90
2022-09-06T01:43:32.006Z,15.90
2022-09-06T01:46:13.187Z,16.00
2022-09-06T01:49:05.047Z,15.90
2022-09-06T01:51:46.747Z,16.00
2022-09-06T01:54:26.731Z,16.00
2022-09-06T01:57:12.586Z,16.10
2022-09-06T02:00:19.634Z,16.10
2022-09-06T02:03:02.917Z,16.20
2022-09-06T02:05:32.584Z,16.20
2022-09-06T02:08:06.504Z,16.20
2022-09-06T02:11:08.634Z,16.20
2022-09-06T02:13:52.864Z,16.20
2022-09-06T02:16:26.051Z,16.30
2022-09-06T02:19:15.935Z,16.30
2022-09-06T02:21:45.792Z,16.20
2022-09-06T02:24:28.450Z,16.10
2022-09-06T02:26:55.414Z,16.10
2022-09-06T02:29:22.531Z,16.10
2022-09-06T02:31:59.322Z,16.10
2022-09-06T02:34:26.332Z,16.10
2022-09-06T02:36:55.809Z,16.00
2022-09-06T02:39:22.772Z,16.00
2022-09-06T02:41:49.810Z,15.90
2022-09-06T02:44:16.756Z,15.80
2022-09-06T02:46:43.643Z,15.80
2022-09-06T02:49:10.527Z,15.70
2022-09-06T02:51:39.194Z,15.60
2022-09-06T02:54:06.588Z,15.60
2022-09-06T02:56:34.504Z,15.50
2022-09-06T02:59:01.389Z,15.40
2022-09-06T03:01:28.352Z,15.30
2022-09-06T03:03:56.059Z,15.20
2022-09-06T03:06:23.062Z,15.10
2022-09-06T03:08:50.192Z,15.00
2022-09-06T03:11:17.171Z,15.00
2022-09-06T03:13:44.056Z,14.90
2022-09-06T03:16:11.027Z,14.90
2022-09-06T03:18:37.998Z,14.90
2022-09-06T03:21:05.227Z,14.80
2022-09-06T03:23:32.148Z,14.70
2022-09-06T03:25:59.070Z,14.70
2022-09-06T03:28:26.312Z,14.60
2022-09-06T03:30:53.696Z,14.60
2022-09-06T03:33:21.149Z,14.60
2022-09-06T03:35:50.395Z,14.60
2022-09-06T03:38:18.144Z,14.50
2022-09-06T03:40:49.271Z,14.50
2022-09-06T03:43:17.626Z,14.40
2022-09-06T03:45:53.174Z,14.40
2022-09-06T03:48:21.932Z,14.30
2022-09-06T03:50:51.338Z,14.30
2022-09-06T03:53:18.943Z,14.40
2022-09-06T03:55:47.435Z,14.30
2022-09-06T03:58:15.212Z,14.30
2022-09-06T04:00:42.194Z,14.30
2022-09-06T04:03:09.150Z,14.30
2022-09-06T04:05:36.143Z,14.30
2022-09-06T04:08:03.353Z,14.30
2022-09-06T04:10:30.214Z,14.20
2022-09-06T04:12:57.113Z,14.20
2022-09-06T04:15:24.027Z,14.20
2022-09-06T04:17:50.878Z,14.20
2022-09-06T04:20:17.999Z,14.10
2022-09-06T04:22:44.861Z,14.10
2022-09-06T04:25:13.930Z,14.10
2022-09-06T04:27:40.852Z,14.10
2022-09-06T04:30:08.527Z,14.20
2022-09-06T04:32:35.490Z,14.20
2022-09-06T04:35:02.447Z,14.20
2022-09-06T04:37:29.311Z,14.30
2022-09-06T04:39:56.348Z,14.40
2022-09-06T04:42:23.279Z,14.50
2022-09-06T04:44:50.158Z,14.60
2022-09-06T04:47:19.233Z,14.70
2022-09-06T04:49:48.291Z,14.80
2022-09-06T04:52:16.023Z,14.90
2022-09-06T04:54:44.018Z,15.00
2022-09-06T04:57:10.958Z,15.00
2022-09-06T04:59:37.906Z,15.10
2022-09-06T05:02:04.937Z,15.10
2022-09-06T05:04:31.881Z,15.20
2022-09-06T05:07:07.104Z,15.20
2022-09-06T05:09:34.759Z,15.20
2022-09-06T05:12:01.914Z,15.20
2022-09-06T05:14:29.622Z,15.20
2022-09-06T05:16:56.897Z,15.20
2022-09-06T05:19:23.876Z,15.20
2022-09-06T05:21:53.831Z,15.20
2022-09-06T05:24:20.727Z,15.30
2022-09-06T05:26:47.658Z,15.30
2022-09-06T05:29:14.655Z,15.40
2022-09-06T05:31:41.634Z,15.50
2022-09-06T05:34:08.621Z,15.60
2022-09-06T05:36:35.561Z,15.60
2022-09-06T05:39:02.477Z,15.70
2022-09-06T05:41:29.426Z,15.70
2022-09-06T05:43:56.407Z,15.80
2022-09-06T05:46:23.459Z,15.80
2022-09-06T05:48:54.882Z,15.80
2022-09-06T05:51:21.926Z,15.70
2022-09-06T05:53:48.875Z,15.70
2022-09-06T05:56:16.948Z,15.80
2022-09-06T05:58:44.074Z,15.90
2022-09-06T06:01:20.289Z,16.00
2022-09-06T06:04:13.618Z,16.20
2022-09-06T06:06:40.508Z,16.20
2022-09-06T06:09:07.598Z,16.40
2022-09-06T06:11:34.574Z,16.50
2022-09-06T06:14:03.526Z,16.60
2022-09-06T06:16:30.918Z,16.70
2022-09-06T06:18:57.893Z,16.80
2022-09-06T06:21:26.861Z,16.90
2022-09-06T06:23:59.099Z,17.00
2022-09-06T06:26:27.322Z,17.10
2022-09-06T06:28:54.914Z,17.20
2022-09-06T06:31:22.449Z,17.20
2022-09-06T06:33:50.320Z,17.30
2022-09-06T06:36:17.179Z,17.40
2022-09-06T06:38:45.708Z,17.50
2022-09-06T06:41:18.491Z,17.60
2022-09-06T06:43:45.562Z,17.70
2022-09-06T06:46:18.174Z,17.90
2022-09-06T06:48:46.338Z,18.00
2022-09-06T06:51:16.820Z,18.10
2022-09-06T06:53:47.426Z,18.30
2022-09-06T06:56:27.446Z,18.40
2022-09-06T06:58:57.776Z,18.60
2022-09-06T07:01:26.507Z,18.70
2022-09-06T07:03:54.481Z,18.80
2022-09-06T07:09:09.194Z,19.00
2022-09-06T07:11:36.054Z,19.00
2022-09-06T07:14:02.952Z,19.00
2022-09-06T07:16:30.128Z,19.10
2022-09-06T07:18:57.079Z,19.30
2022-09-06T07:21:42.528Z,19.30
2022-09-06T07:24:10.491Z,19.40
2022-09-06T07:26:39.520Z,19.60
2022-09-06T07:29:08.308Z,19.70
2022-09-06T07:34:25.881Z,19.80
2022-09-06T07:36:56.788Z,20.10
2022-09-06T07:39:24.105Z,20.10
2022-09-06T07:41:51.075Z,20.30
2022-09-06T07:44:18.016Z,20.40
2022-09-06T07:46:45.108Z,20.50
2022-09-06T07:49:12.147Z,20.50
2022-09-06T07:51:39.019Z,20.60
2022-09-06T07:54:29.369Z,20.60
2022-09-06T07:56:53.852Z,20.70
2022-09-06T07:59:20.739Z,20.90
2022-09-06T08:01:48.354Z,20.90
2022-09-06T08:04:15.415Z,21.10
2022-09-06T08:09:36.037Z,21.30
2022-09-06T08:12:06.968Z,21.40
2022-09-06T08:14:34.993Z,21.40
2022-09-06T08:17:03.290Z,21.50
2022-09-06T08:19:30.275Z,21.60
2022-09-06T08:21:57.282Z,21.60
2022-09-06T08:24:24.181Z,21.70
2022-09-06T08:26:51.160Z,21.80
2022-09-06T08:29:23.507Z,21.90
2022-09-06T08:31:50.490Z,22.00
2022-09-06T08:34:17.537Z,22.00
2022-09-06T08:36:45.506Z,22.10
2022-09-06T08:39:12.618Z,22.10
2022-09-06T08:41:52.915Z,22.20
2022-09-06T08:47:23.068Z,22.30
2022-09-06T08:50:02.684Z,22.40
2022-09-06T08:53:13.587Z,22.50
2022-09-06T08:55:44.849Z,22.50
2022-09-06T08:58:20.375Z,22.70
2022-09-06T09:01:11.967Z,22.80
2022-09-06T09:03:42.025Z,22.80
2022-09-06T09:06:10.350Z,22.90
2022-09-06T09:09:08.183Z,22.90
2022-09-06T09:11:36.288Z,23.00
2022-09-06T09:14:12.343Z,23.10
2022-09-06T09:16:39.306Z,23.10
2022-09-06T09:19:06.827Z,23.10
2022-09-06T09:21:36.438Z,23.20
2022-09-06T09:24:09.089Z,23.30
2022-09-06T09:26:56.832Z,23.40
2022-09-06T09:29:27.943Z,23.50
2022-09-06T09:31:56.849Z,23.60
2022-09-06T09:34:39.788Z,23.70
2022-09-06T09:40:29.999Z,23.90
2022-09-06T09:43:11.211Z,24.10
2022-09-06T09:45:38.113Z,24.30
2022-09-06T09:48:37.231Z,24.30
2022-09-06T09:51:26.502Z,24.30
2022-09-06T09:54:01.739Z,24.20
2022-09-06T09:56:43.913Z,24.20
2022-09-06T09:59:44.375Z,24.50
2022-09-06T10:02:30.023Z,24.50
2022-09-06T10:05:04.050Z,24.60
2022-09-06T10:07:33.254Z,24.60
2022-09-06T10:10:07.383Z,24.60
2022-09-06T10:12:39.454Z,24.50
2022-09-06T10:15:11.892Z,24.50
2022-09-06T10:17:48.101Z,24.70
2022-09-06T10:20:16.512Z,24.80
2022-09-06T10:23:04.807Z,24.90
2022-09-06T10:25:39.884Z,25.10
2022-09-06T10:28:23.985Z,25.00
2022-09-06T10:31:09.457Z,24.90
2022-09-06T10:33:39.347Z,25.10
2022-09-06T10:36:06.466Z,25.20
2022-09-06T10:39:03.476Z,25.20
2022-09-06T10:41:49.522Z,25.30
2022-09-06T10:44:35.167Z,25.40
2022-09-06T10:47:11.130Z,25.60
2022-09-06T10:49:40.607Z,25.70
2022-09-06T10:52:13.371Z,25.80
2022-09-06T10:54:42.068Z,25.80
2022-09-06T11:00:21.766Z,25.70
2022-09-06T11:05:58.264Z,25.90
2022-09-06T11:11:21.470Z,25.80
2022-09-06T11:13:48.454Z,25.90
2022-09-06T11:16:24.342Z,25.90
2022-09-06T11:19:17.852Z,26.00
2022-09-06T11:22:12.899Z,26.10
2022-09-06T11:24:48.514Z,26.10
2022-09-06T11:27:33.487Z,26.40
2022-09-06T11:30:03.178Z,26.50
2022-09-06T11:32:33.291Z,26.80
2022-09-06T11:35:04.706Z,27.00
2022-09-06T11:37:42.916Z,27.20
2022-09-06T11:40:29.494Z,27.30
2022-09-06T11:42:58.737Z,27.70
2022-09-06T11:45:50.334Z,27.90
2022-09-06T11:48:26.630Z,28.10
2022-09-06T11:50:59.823Z,28.50
2022-09-06T11:53:57.359Z,28.50
2022-09-06T11:57:00.689Z,28.80
2022-09-06T11:59:33.349Z,28.50
2022-09-06T12:02:07.582Z,28.30
2022-09-06T12:05:00.375Z,28.00
2022-09-06T12:07:32.527Z,27.80
2022-09-06T12:10:22.893Z,27.90
2022-09-06T12:12:52.613Z,27.90
2022-09-06T12:15:28.520Z,28.00
2022-09-06T12:17:56.740Z,28.00
2022-09-06T12:20:48.130Z,28.30
2022-09-06T12:23:36.608Z,28.80
2022-09-06T12:26:11.410Z,29.00
2022-09-06T12:28:49.813Z,29.10
2022-09-06T12:31:36.877Z,29.40
2022-09-06T12:34:31.296Z,29.10
2022-09-06T12:37:07.268Z,29.00
2022-09-06T12:39:34.876Z,29.20
2022-09-06T12:42:10.714Z,29.20
2022-09-06T12:44:43.030Z,29.00
2022-09-06T12:47:21.337Z,28.80
2022-09-06T12:49:48.188Z,28.60
2022-09-06T12:52:19.507Z,28.30
2022-09-06T12:54:49.964Z,28.20
2022-09-06T12:57:26.038Z,28.20
2022-09-06T12:59:57.610Z,28.00
2022-09-06T13:02:32.844Z,27.90
2022-09-06T13:05:07.175Z,27.60
2022-09-06T13:07:38.239Z,27.40
2022-09-06T13:10:05.335Z,27.30
2022-09-06T13:12:39.410Z,27.20
2022-09-06T13:15:17.650Z,27.10
2022-09-06T13:17:44.539Z,26.90
2022-09-06T13:20:30.461Z,26.60
2022-09-06T13:23:13.058Z,26.40
2022-09-06T13:25:50.914Z,26.20
2022-09-06T13:28:32.510Z,26.10
2022-09-06T13:31:18.594Z,26.10
2022-09-06T13:33:54.649Z,26.40
2022-09-06T13:36:24.564Z,26.70
2022-09-06T13:38:51.459Z,26.90
2022-09-06T13:41:27.582Z,27.30
2022-09-06T13:44:28.407Z,27.50
2022-09-06T13:46:55.440Z,27.20
2022-09-06T13:49:25.820Z,27.20
2022-09-06T13:51:53.932Z,27.10
2022-09-06T13:54:22.658Z,27.00
2022-09-06T13:56:50.436Z,27.10
2022-09-06T13:59:18.266Z,27.00
2022-09-06T14:01:47.860Z,27.20
2022-09-06T14:04:21.319Z,27.10
2022-09-06T14:06:49.291Z,27.00
2022-09-06T14:09:16.345Z,27.10
2022-09-06T14:11:48.045Z,27.10
2022-09-06T14:14:17.771Z,27.30
2022-09-06T14:16:46.011Z,27.30
2022-09-06T14:19:13.182Z,27.10
2022-09-06T14:21:40.516Z,27.10
2022-09-06T14:24:07.544Z,27.00
2022-09-06T14:26:36.191Z,27.00
2022-09-06T14:29:03.614Z,26.90
2022-09-06T14:31:32.672Z,26.90
2022-09-06T14:34:00.725Z,26.90
2022-09-06T14:36:29.551Z,26.80
2022-09-06T14:39:01.091Z,26.80
2022-09-06T14:41:28.113Z,26.80
2022-09-06T14:43:57.350Z,26.80
2022-09-06T14:46:26.084Z,26.80
2022-09-06T14:49:06.120Z,26.70
2022-09-06T14:51:33.246Z,26.50
2022-09-06T14:54:04.753Z,26.30
2022-09-06T14:56:31.762Z,26.10
2022-09-06T14:59:00.104Z,25.90
2022-09-06T15:01:35.731Z,25.90
2022-09-06T15:04:07.081Z,25.80
2022-09-06T15:06:37.005Z,25.80
2022-09-06T15:09:07.667Z,25.90
2022-09-06T15:11:39.406Z,25.90
2022-09-06T15:14:12.283Z,26.00
2022-09-06T15:16:39.404Z,26.00
2022-09-06T15:19:07.849Z,25.90
2022-09-06T15:21:34.815Z,25.90
2022-09-06T15:24:02.637Z,25.90
2022-09-06T15:26:30.426Z,25.90
2022-09-06T15:28:57.451Z,25.70
2022-09-06T15:31:24.462Z,25.60
2022-09-06T15:33:51.980Z,25.50
2022-09-06T15:36:19.587Z,25.40
2022-09-06T15:38:48.990Z,25.30
2022-09-06T15:41:18.757Z,25.00
2022-09-06T15:43:48.411Z,24.90
2022-09-06T15:46:20.889Z,24.80
2022-09-06T15:48:50.100Z,24.80
2022-09-06T15:51:19.990Z,24.70
2022-09-06T15:53:47.469Z,24.50
2022-09-06T15:56:16.563Z,24.50
2022-09-06T15:58:43.742Z,24.30
2022-09-06T16:01:15.994Z,24.30
2022-09-06T16:03:45.763Z,24.10
2022-09-06T16:06:31.656Z,24.00
2022-09-06T16:09:10.248Z,23.90
2022-09-06T16:11:37.778Z,23.80
2022-09-06T16:14:06.983Z,23.70
2022-09-06T16:16:35.248Z,23.70
2022-09-06T16:19:02.543Z,23.80
2022-09-06T16:21:32.327Z,23.90
2022-09-06T16:24:02.135Z,23.90
2022-09-06T16:26:32.375Z,24.10
2022-09-06T16:29:02.028Z,24.50
2022-09-06T16:31:29.917Z,24.50
2022-09-06T16:33:58.001Z,24.30
2022-09-06T16:36:26.279Z,24.20
2022-09-06T16:38:53.291Z,24.00
2022-09-06T16:41:22.413Z,23.90
2022-09-06T16:43:49.566Z,23.70
2022-09-06T16:46:16.737Z,23.50
2022-09-06T16:48:43.810Z,23.30
2022-09-06T16:51:13.783Z,23.20
2022-09-06T16:53:44.176Z,23.10
2022-09-06T16:56:13.380Z,23.00
2022-09-06T16:58:41.870Z,22.90
2022-09-06T17:01:09.976Z,22.80
2022-09-06T17:03:37.660Z,22.70
2022-09-06T17:06:06.322Z,22.70
2022-09-06T17:08:34.806Z,22.60
2022-09-06T17:11:06.829Z,22.50
2022-09-06T17:13:34.234Z,22.40
2022-09-06T17:16:22.237Z,22.40
2022-09-06T17:18:52.599Z,22.30
2022-09-06T17:21:21.534Z,22.20
2022-09-06T17:23:49.566Z,22.10
2022-09-06T17:26:18.610Z,22.10
2022-09-06T17:28:45.613Z,22.00
2022-09-06T17:31:13.049Z,22.00
2022-09-06T17:33:40.175Z,21.90
2022-09-06T17:36:13.023Z,21.80
2022-09-06T17:38:42.707Z,21.80
2022-09-06T17:41:24.220Z,21.80
2022-09-06T17:43:53.863Z,21.70
2022-09-06T17:46:26.448Z,21.70
2022-09-06T17:48:56.166Z,21.60
2022-09-06T17:51:24.003Z,21.60
2022-09-06T17:53:52.183Z,21.60
2022-09-06T17:56:20.354Z,21.60
2022-09-06T17:58:59.636Z,21.60
2022-09-06T18:01:29.676Z,21.60
2022-09-06T18:03:56.961Z,21.50
2022-09-06T18:06:25.542Z,21.50
2022-09-06T18:08:54.890Z,21.40
2022-09-06T18:11:28.007Z,21.40
2022-09-06T18:14:00.664Z,21.40
2022-09-06T18:16:29.033Z,21.30
2022-09-06T18:18:58.463Z,21.30
2022-09-06T18:21:28.088Z,21.20
2022-09-06T18:23:55.839Z,21.20
2022-09-06T18:26:22.864Z,21.20
2022-09-06T18:28:50.554Z,21.20
2022-09-06T18:31:19.815Z,21.20
2022-09-06T18:33:47.114Z,21.20
2022-09-06T18:36:18.477Z,21.20
2022-09-06T18:38:45.662Z,21.30
2022-09-06T18:41:34.378Z,21.30
2022-09-06T18:44:03.283Z,21.30
2022-09-06T18:46:38.199Z,21.30
2022-09-06T18:49:06.271Z,21.20
2022-09-06T18:51:34.782Z,21.20
2022-09-06T18:54:05.379Z,21.20
2022-09-06T18:56:32.680Z,21.20
2022-09-06T18:59:01.014Z,21.20
2022-09-06T19:01:30.338Z,21.10
2022-09-06T19:03:58.553Z,21.10
2022-09-06T19:06:27.246Z,21.10
2022-09-06T19:08:57.926Z,21.10
2022-09-06T19:11:27.429Z,21.00
2022-09-06T19:13:56.381Z,21.00
2022-09-06T19:16:24.800Z,21.00
2022-09-06T19:18:55.106Z,20.90
2022-09-06T19:21:25.368Z,20.90
2022-09-06T19:23:58.386Z,20.90
2022-09-06T19:26:27.107Z,20.90
2022-09-06T19:28:56.553Z,20.80
2022-09-06T19:31:25.692Z,20.70
2022-09-06T19:33:53.845Z,20.70
2022-09-06T19:36:22.298Z,20.60
2022-09-06T19:39:04.327Z,20.60
2022-09-06T19:41:33.547Z,20.50
2022-09-06T19:44:01.675Z,20.50
2022-09-06T19:46:28.940Z,20.40
2022-09-06T19:48:56.441Z,20.30
2022-09-06T19:51:24.667Z,20.20
2022-09-06T19:53:54.095Z,20.10
2022-09-06T19:56:41.361Z,20.10
2022-09-06T19:59:12.165Z,20.00
2022-09-06T20:01:40.779Z,20.00
2022-09-06T20:04:11.107Z,19.90
2022-09-06T20:06:38.854Z,19.90
2022-09-06T20:09:09.083Z,19.90
2022-09-06T20:11:37.230Z,19.80
2022-09-06T20:14:04.559Z,19.70
2022-09-06T20:16:31.846Z,19.70
2022-09-06T20:18:59.783Z,19.60
2022-09-06T20:21:28.018Z,19.60
2022-09-06T20:23:57.155Z,19.60
2022-09-06T20:26:25.409Z,19.60
2022-09-06T20:28:57.108Z,19.60
2022-09-06T20:31:24.865Z,19.50
2022-09-06T20:33:51.936Z,19.50
2022-09-06T20:36:19.867Z,19.60
2022-09-06T20:38:48.161Z,19.60
2022-09-06T20:41:18.225Z,19.50
2022-09-06T20:43:46.601Z,19.50
2022-09-06T20:46:16.455Z,19.50
2022-09-06T20:48:45.323Z,19.60
2022-09-06T20:51:23.469Z,19.60
2022-09-06T20:53:58.675Z,19.50
2022-09-06T20:56:47.178Z,19.50
2022-09-06T20:59:14.539Z,19.50
2022-09-06T21:01:46.352Z,19.50
2022-09-06T21:04:16.098Z,19.50
2022-09-06T21:06:43.339Z,19.50
2022-09-06T21:09:13.257Z,19.40
2022-09-06T21:11:41.118Z,19.40
2022-09-06T21:14:09.407Z,19.40
2022-09-06T21:16:37.805Z,19.40
2022-09-06T21:19:07.059Z,19.30
2022-09-06T21:21:34.976Z,19.40
2022-09-06T21:24:02.873Z,19.40
2022-09-06T21:26:29.903Z,19.30
2022-09-06T21:28:57.058Z,19.30
2022-09-06T21:31:26.345Z,19.20
2022-09-06T21:33:59.383Z,19.20
2022-09-06T21:36:31.501Z,19.20
2022-09-06T21:39:04.454Z,19.10
2022-09-06T21:41:31.958Z,19.10
2022-09-06T21:44:00.642Z,19.20
2022-09-06T21:46:32.880Z,19.10
2022-09-06T21:49:03.615Z,19.00
2022-09-06T21:51:31.067Z,19.00
2022-09-06T21:53:58.395Z,19.00
2022-09-06T21:56:25.825Z,18.90
2022-09-06T21:58:57.363Z,18.90
2022-09-06T22:01:26.546Z,18.90
2022-09-06T22:03:53.955Z,18.90
2022-09-06T22:06:28.720Z,18.80
2022-09-06T22:08:57.694Z,18.80
2022-09-06T22:11:32.953Z,18.80
2022-09-06T22:14:05.711Z,18.80
2022-09-06T22:16:35.094Z,18.80
2022-09-06T22:19:04.875Z,18.70
2022-09-06T22:21:32.066Z,18.60
2022-09-06T22:24:01.573Z,18.60
2022-09-06T22:26:30.551Z,18.50
2022-09-06T22:29:00.145Z,18.50
2022-09-06T22:31:29.444Z,18.30
2022-09-06T22:33:57.372Z,18.20
2022-09-06T22:36:25.574Z,18.10
2022-09-06T22:38:57.243Z,18.00
2022-09-06T22:41:25.802Z,17.90
2022-09-06T22:43:52.794Z,17.80
2022-09-06T22:46:20.346Z,17.70
2022-09-06T22:48:47.809Z,17.60
2022-09-06T22:51:14.943Z,17.50
2022-09-06T22:53:41.923Z,17.40
2022-09-06T22:56:09.047Z,17.20
2022-09-06T22:58:36.046Z,17.10
2022-09-06T23:01:08.900Z,17.10
2022-09-06T23:03:36.322Z,17.00
2022-09-06T23:06:03.863Z,17.00
2022-09-06T23:08:31.728Z,16.90
2022-09-06T23:11:03.294Z,17.00
2022-09-06T23:13:30.936Z,16.90
2022-09-06T23:16:03.266Z,16.90
2022-09-06T23:18:30.408Z,16.90
2022-09-06T23:20:57.480Z,16.90
2022-09-06T23:23:24.387Z,16.90
2022-09-06T23:25:51.661Z,16.90
2022-09-06T23:28:18.563Z,16.80
2022-09-06T23:30:46.055Z,16.70
2022-09-06T23:33:12.933Z,16.70
2022-09-06T23:35:40.246Z,16.60
2022-09-06T23:38:07.377Z,16.60
2022-09-06T23:40:34.275Z,16.50
2022-09-06T23:43:01.156Z,16.50
2022-09-06T23:45:28.132Z,16.40
2022-09-06T23:47:55.054Z,16.40
2022-09-06T23:50:21.948Z,16.40
2022-09-06T23:52:48.867Z,16.30
2022-09-06T23:55:15.766Z,16.30
2022-09-06T23:57:42.707Z,16.30
